sensor_id;sensor_type;location;lat;lon;timestamp;pressure;altitude;pressure_sealevel;temperature;humidity
46598;BME280;32318;48.858;8.252;2023-04-28T00:01:28;100013.47;;;14.25;58.01
46598;BME280;32318;48.858;8.252;2023-04-28T00:09:29;100012.63;;;14.25;58.13
46598;BME280;32318;48.858;8.252;2023-04-28T00:17:29;100010.53;;;14.20;58.84
46598;BME280;32318;48.858;8.252;2023-04-28T00:25:29;100002.47;;;14.20;58.71
46598;BME280;32318;48.858;8.252;2023-04-28T00:33:30;100000.81;;;14.19;59.32
46598;BME280;32318;48.858;8.252;2023-04-28T00:41:30;99998.31;;;14.18;59.84
46598;BME280;32318;48.858;8.252;2023-04-28T00:49:30;99989.22;;;14.19;59.61
46598;BME280;32318;48.858;8.252;2023-04-28T00:57:31;99972.94;;;14.20;60.13
46598;BME280;32318;48.858;8.252;2023-04-28T01:05:32;99968.59;;;14.19;60.60
46598;BME280;32318;48.858;8.252;2023-04-28T01:13:33;99965.03;;;14.12;61.23
46598;BME280;32318;48.858;8.252;2023-04-28T01:21:33;99992.63;;;14.06;61.60
46598;BME280;32318;48.858;8.252;2023-04-28T01:29:33;100000.00;;;13.97;63.35
46598;BME280;32318;48.858;8.252;2023-04-28T01:37:34;99974.31;;;13.88;63.95
46598;BME280;32318;48.858;8.252;2023-04-28T01:45:34;99961.22;;;13.78;65.63
46598;BME280;32318;48.858;8.252;2023-04-28T01:53:35;99986.69;;;13.67;66.07
46598;BME280;32318;48.858;8.252;2023-04-28T02:01:35;99974.69;;;13.63;66.73
46598;BME280;32318;48.858;8.252;2023-04-28T02:09:35;100011.28;;;13.49;67.11
46598;BME280;32318;48.858;8.252;2023-04-28T02:17:35;99977.78;;;13.45;65.73
46598;BME280;32318;48.858;8.252;2023-04-28T02:25:35;100003.34;;;13.41;67.76
46598;BME280;32318;48.858;8.252;2023-04-28T02:33:37;100016.09;;;13.39;68.68
46598;BME280;32318;48.858;8.252;2023-04-28T02:41:37;100013.13;;;13.33;69.01
46598;BME280;32318;48.858;8.252;2023-04-28T02:49:37;100016.38;;;13.29;68.60
46598;BME280;32318;48.858;8.252;2023-04-28T02:57:37;100004.44;;;13.31;68.92
46598;BME280;32318;48.858;8.252;2023-04-28T03:05:38;99999.28;;;13.30;69.03
46598;BME280;32318;48.858;8.252;2023-04-28T03:13:38;99997.22;;;13.32;68.91
46598;BME280;32318;48.858;8.252;2023-04-28T03:21:38;99983.56;;;13.27;69.43
46598;BME280;32318;48.858;8.252;2023-04-28T03:29:38;99976.06;;;13.22;69.89
46598;BME280;32318;48.858;8.252;2023-04-28T03:37:39;99967.84;;;13.24;69.74
46598;BME280;32318;48.858;8.252;2023-04-28T03:45:40;99947.88;;;13.26;70.09
46598;BME280;32318;48.858;8.252;2023-04-28T03:53:40;99935.09;;;13.28;69.93
46598;BME280;32318;48.858;8.252;2023-04-28T04:01:40;99927.69;;;13.30;69.94
46598;BME280;32318;48.858;8.252;2023-04-28T04:09:41;99936.00;;;13.36;70.20
46598;BME280;32318;48.858;8.252;2023-04-28T04:17:41;99933.72;;;13.32;71.32
46598;BME280;32318;48.858;8.252;2023-04-28T04:25:41;99926.44;;;13.26;72.01
46598;BME280;32318;48.858;8.252;2023-04-28T04:33:41;99910.72;;;13.23;72.02
46598;BME280;32318;48.858;8.252;2023-04-28T04:41:42;99904.59;;;13.29;72.59
46598;BME280;32318;48.858;8.252;2023-04-28T04:49:42;99910.81;;;13.30;72.79
46598;BME280;32318;48.858;8.252;2023-04-28T04:57:43;99920.69;;;13.29;73.53
46598;BME280;32318;48.858;8.252;2023-04-28T05:05:43;99931.41;;;13.29;73.29
46598;BME280;32318;48.858;8.252;2023-04-28T05:13:47;99942.13;;;13.29;73.86
46598;BME280;32318;48.858;8.252;2023-04-28T05:21:47;99937.53;;;13.23;74.06
46598;BME280;32318;48.858;8.252;2023-04-28T05:29:48;99914.06;;;13.25;74.27
46598;BME280;32318;48.858;8.252;2023-04-28T05:37:48;99907.66;;;13.26;74.27
46598;BME280;32318;48.858;8.252;2023-04-28T05:45:48;99905.81;;;13.27;75.57
46598;BME280;32318;48.858;8.252;2023-04-28T05:53:49;99903.56;;;13.30;75.75
46598;BME280;32318;48.858;8.252;2023-04-28T06:01:49;99901.91;;;13.29;76.22
46598;BME280;32318;48.858;8.252;2023-04-28T06:09:52;99901.25;;;13.27;78.18
46598;BME280;32318;48.858;8.252;2023-04-28T06:17:52;99884.72;;;13.24;79.63
46598;BME280;32318;48.858;8.252;2023-04-28T06:25:53;99898.97;;;13.24;80.77
46598;BME280;32318;48.858;8.252;2023-04-28T06:33:53;99890.97;;;13.31;81.70
46598;BME280;32318;48.858;8.252;2023-04-28T06:41:53;99890.41;;;13.36;82.97
46598;BME280;32318;48.858;8.252;2023-04-28T06:49:54;99888.69;;;13.43;84.34
46598;BME280;32318;48.858;8.252;2023-04-28T06:57:54;99892.25;;;13.50;84.86
46598;BME280;32318;48.858;8.252;2023-04-28T07:05:54;99897.47;;;13.58;83.42
46598;BME280;32318;48.858;8.252;2023-04-28T07:13:55;99904.56;;;13.66;86.24
46598;BME280;32318;48.858;8.252;2023-04-28T07:21:55;99914.25;;;13.67;88.15
46598;BME280;32318;48.858;8.252;2023-04-28T07:29:56;99922.28;;;13.60;86.97
46598;BME280;32318;48.858;8.252;2023-04-28T07:37:56;99921.44;;;13.60;87.92
46598;BME280;32318;48.858;8.252;2023-04-28T07:45:57;99929.66;;;13.58;90.29
46598;BME280;32318;48.858;8.252;2023-04-28T07:53:58;99938.75;;;13.57;89.66
46598;BME280;32318;48.858;8.252;2023-04-28T08:01:58;99938.81;;;13.64;88.54
46598;BME280;32318;48.858;8.252;2023-04-28T08:09:58;99948.13;;;13.68;89.25
46598;BME280;32318;48.858;8.252;2023-04-28T08:17:58;99944.28;;;13.77;90.69
46598;BME280;32318;48.858;8.252;2023-04-28T08:25:59;99975.03;;;13.75;90.48
46598;BME280;32318;48.858;8.252;2023-04-28T08:33:59;99967.84;;;13.82;90.38
46598;BME280;32318;48.858;8.252;2023-04-28T08:42:03;99979.09;;;13.92;92.11
46598;BME280;32318;48.858;8.252;2023-04-28T08:50:05;99980.88;;;14.07;91.47
46598;BME280;32318;48.858;8.252;2023-04-28T08:58:07;99972.38;;;14.32;90.94
46598;BME280;32318;48.858;8.252;2023-04-28T09:06:07;99983.84;;;14.40;91.25
46598;BME280;32318;48.858;8.252;2023-04-28T09:14:11;99984.78;;;14.61;90.82
46598;BME280;32318;48.858;8.252;2023-04-28T09:22:12;99986.72;;;14.67;91.37
46598;BME280;32318;48.858;8.252;2023-04-28T09:30:13;99982.44;;;14.80;92.74
46598;BME280;32318;48.858;8.252;2023-04-28T09:38:14;99998.06;;;15.04;91.37
46598;BME280;32318;48.858;8.252;2023-04-28T09:46:27;99990.34;;;15.30;88.90
46598;BME280;32318;48.858;8.252;2023-04-28T09:54:28;99990.41;;;15.57;89.96
46598;BME280;32318;48.858;8.252;2023-04-28T10:02:29;99983.44;;;15.82;88.70
46598;BME280;32318;48.858;8.252;2023-04-28T10:10:30;99980.97;;;15.94;87.76
46598;BME280;32318;48.858;8.252;2023-04-28T10:18:30;99978.91;;;16.10;88.24
46598;BME280;32318;48.858;8.252;2023-04-28T10:51:27;99972.19;;;16.80;84.71
46598;BME280;32318;48.858;8.252;2023-04-28T10:59:27;99974.13;;;17.24;82.61
46598;BME280;32318;48.858;8.252;2023-04-28T11:07:29;99962.72;;;17.61;82.62
46598;BME280;32318;48.858;8.252;2023-04-28T11:15:29;99956.97;;;17.83;79.23
46598;BME280;32318;48.858;8.252;2023-04-28T11:23:30;99945.13;;;17.84;77.69
46598;BME280;32318;48.858;8.252;2023-04-28T11:31:30;99935.91;;;17.98;77.39
46598;BME280;32318;48.858;8.252;2023-04-28T11:39:31;99930.81;;;18.09;75.60
46598;BME280;32318;48.858;8.252;2023-04-28T11:47:33;99929.50;;;18.18;76.32
46598;BME280;32318;48.858;8.252;2023-04-28T11:55:33;99932.25;;;17.86;77.52
46598;BME280;32318;48.858;8.252;2023-04-28T12:03:46;99936.44;;;17.75;77.12
46598;BME280;32318;48.858;8.252;2023-04-28T12:12:00;99946.50;;;17.61;76.12
46598;BME280;32318;48.858;8.252;2023-04-28T12:20:32;99941.47;;;17.71;77.24
46598;BME280;32318;48.858;8.252;2023-04-28T12:37:26;99932.81;;;18.39;75.62
46598;BME280;32318;48.858;8.252;2023-04-28T12:45:41;99930.72;;;18.41;74.97
46598;BME280;32318;48.858;8.252;2023-04-28T12:53:42;99945.72;;;18.18;76.41
46598;BME280;32318;48.858;8.252;2023-04-28T13:01:42;99951.66;;;17.69;78.81
46598;BME280;32318;48.858;8.252;2023-04-28T13:10:06;99954.84;;;17.21;81.69
46598;BME280;32318;48.858;8.252;2023-04-28T13:18:17;99960.56;;;16.79;84.30
46598;BME280;32318;48.858;8.252;2023-04-28T13:26:18;99948.41;;;16.63;85.83
46598;BME280;32318;48.858;8.252;2023-04-28T13:34:19;99939.47;;;16.69;84.74
46598;BME280;32318;48.858;8.252;2023-04-28T13:42:19;99940.25;;;16.76;87.46
46598;BME280;32318;48.858;8.252;2023-04-28T13:50:19;99942.72;;;16.91;87.58
46598;BME280;32318;48.858;8.252;2023-04-28T13:58:19;99918.63;;;17.03;88.16
46598;BME280;32318;48.858;8.252;2023-04-28T14:06:20;99931.88;;;17.05;86.86
46598;BME280;32318;48.858;8.252;2023-04-28T14:14:21;99924.88;;;16.97;88.67
46598;BME280;32318;48.858;8.252;2023-04-28T14:22:21;99899.81;;;17.29;86.37
46598;BME280;32318;48.858;8.252;2023-04-28T14:30:22;99899.47;;;17.50;85.74
46598;BME280;32318;48.858;8.252;2023-04-28T14:38:22;99890.88;;;17.60;85.49
46598;BME280;32318;48.858;8.252;2023-04-28T14:46:22;99869.06;;;17.62;85.16
46598;BME280;32318;48.858;8.252;2023-04-28T14:54:23;99862.16;;;17.66;85.05
46598;BME280;32318;48.858;8.252;2023-04-28T15:02:28;99859.09;;;17.62;85.62
46598;BME280;32318;48.858;8.252;2023-04-28T15:10:36;99861.63;;;17.57;85.15
46598;BME280;32318;48.858;8.252;2023-04-28T15:18:37;99865.28;;;17.37;85.13
46598;BME280;32318;48.858;8.252;2023-04-28T15:26:37;99863.53;;;17.18;85.81
46598;BME280;32318;48.858;8.252;2023-04-28T15:34:37;99873.59;;;17.04;88.02
46598;BME280;32318;48.858;8.252;2023-04-28T15:42:37;99866.56;;;17.03;89.11
46598;BME280;32318;48.858;8.252;2023-04-28T15:50:40;99866.59;;;16.96;89.56
46598;BME280;32318;48.858;8.252;2023-04-28T15:58:41;99845.84;;;16.97;91.02
46598;BME280;32318;48.858;8.252;2023-04-28T16:06:42;99871.34;;;16.87;90.86
46598;BME280;32318;48.858;8.252;2023-04-28T16:14:42;99861.03;;;16.77;90.84
46598;BME280;32318;48.858;8.252;2023-04-28T16:22:43;99874.69;;;16.83;92.08
46598;BME280;32318;48.858;8.252;2023-04-28T16:30:45;99852.88;;;16.98;92.36
46598;BME280;32318;48.858;8.252;2023-04-28T16:38:45;99849.53;;;17.34;91.42
46598;BME280;32318;48.858;8.252;2023-04-28T16:46:46;99849.28;;;17.43;90.42
46598;BME280;32318;48.858;8.252;2023-04-28T16:54:46;99855.09;;;17.46;89.88
46598;BME280;32318;48.858;8.252;2023-04-28T17:02:47;99856.66;;;17.54;90.98
46598;BME280;32318;48.858;8.252;2023-04-28T17:10:47;99848.47;;;17.67;89.40
46598;BME280;32318;48.858;8.252;2023-04-28T17:18:47;99848.00;;;17.70;88.83
46598;BME280;32318;48.858;8.252;2023-04-28T17:26:47;99856.97;;;17.71;89.26
46598;BME280;32318;48.858;8.252;2023-04-28T17:34:48;99848.47;;;17.67;88.51
46598;BME280;32318;48.858;8.252;2023-04-28T17:42:55;99850.59;;;17.59;88.38
46598;BME280;32318;48.858;8.252;2023-04-28T17:50:55;99855.00;;;17.53;88.64
46598;BME280;32318;48.858;8.252;2023-04-28T17:59:02;99856.94;;;17.46;88.78
46598;BME280;32318;48.858;8.252;2023-04-28T18:07:12;99858.69;;;17.33;88.84
46598;BME280;32318;48.858;8.252;2023-04-28T18:15:13;99864.56;;;17.23;88.99
46598;BME280;32318;48.858;8.252;2023-04-28T18:23:13;99863.16;;;17.14;88.93
46598;BME280;32318;48.858;8.252;2023-04-28T18:31:13;99871.72;;;17.04;88.92
46598;BME280;32318;48.858;8.252;2023-04-28T18:39:15;99876.75;;;16.94;89.56
46598;BME280;32318;48.858;8.252;2023-04-28T18:47:17;99885.06;;;16.86;89.59
46598;BME280;32318;48.858;8.252;2023-04-28T18:55:17;99895.28;;;16.77;90.33
46598;BME280;32318;48.858;8.252;2023-04-28T19:03:18;99903.38;;;16.70;90.56
46598;BME280;32318;48.858;8.252;2023-04-28T19:11:19;99917.91;;;16.62;91.22
46598;BME280;32318;48.858;8.252;2023-04-28T19:19:19;99920.84;;;16.54;91.16
46598;BME280;32318;48.858;8.252;2023-04-28T19:27:19;99916.69;;;16.52;91.46
46598;BME280;32318;48.858;8.252;2023-04-28T19:35:20;99929.56;;;16.50;91.43
46598;BME280;32318;48.858;8.252;2023-04-28T19:43:20;99934.53;;;16.46;91.25
46598;BME280;32318;48.858;8.252;2023-04-28T19:51:20;99944.09;;;16.42;91.06
46598;BME280;32318;48.858;8.252;2023-04-28T19:59:21;99950.31;;;16.36;91.03
46598;BME280;32318;48.858;8.252;2023-04-28T20:07:22;99940.59;;;16.28;90.78
46598;BME280;32318;48.858;8.252;2023-04-28T20:15:22;99938.31;;;16.18;90.38
46598;BME280;32318;48.858;8.252;2023-04-28T20:23:23;99943.50;;;16.13;90.75
46598;BME280;32318;48.858;8.252;2023-04-28T20:31:23;99949.50;;;16.08;90.81
46598;BME280;32318;48.858;8.252;2023-04-28T20:39:24;99949.91;;;16.05;89.90
46598;BME280;32318;48.858;8.252;2023-04-28T20:47:25;99961.94;;;16.03;90.08
46598;BME280;32318;48.858;8.252;2023-04-28T20:55:25;99964.44;;;15.97;89.86
46598;BME280;32318;48.858;8.252;2023-04-28T21:03:29;99974.78;;;15.94;90.63
46598;BME280;32318;48.858;8.252;2023-04-28T21:11:29;99971.84;;;15.89;90.57
46598;BME280;32318;48.858;8.252;2023-04-28T21:19:29;99971.84;;;15.82;90.44
46598;BME280;32318;48.858;8.252;2023-04-28T21:27:30;99980.53;;;15.77;89.69
46598;BME280;32318;48.858;8.252;2023-04-28T21:35:30;99978.25;;;15.74;90.33
46598;BME280;32318;48.858;8.252;2023-04-28T21:43:30;99991.06;;;15.72;90.57
46598;BME280;32318;48.858;8.252;2023-04-28T21:51:30;99988.34;;;15.65;90.42
46598;BME280;32318;48.858;8.252;2023-04-28T21:59:32;99984.00;;;15.58;90.17
46598;BME280;32318;48.858;8.252;2023-04-28T22:07:33;99985.84;;;15.50;90.64
46598;BME280;32318;48.858;8.252;2023-04-28T22:15:33;99981.25;;;15.44;90.81
46598;BME280;32318;48.858;8.252;2023-04-28T22:23:33;99979.59;;;15.36;90.66
46598;BME280;32318;48.858;8.252;2023-04-28T22:31:33;99986.63;;;15.31;91.25
46598;BME280;32318;48.858;8.252;2023-04-28T22:39:34;99985.16;;;15.28;91.32
46598;BME280;32318;48.858;8.252;2023-04-28T22:47:36;99985.75;;;15.24;91.33
46598;BME280;32318;48.858;8.252;2023-04-28T22:55:37;99984.09;;;15.23;91.33
46598;BME280;32318;48.858;8.252;2023-04-28T23:03:37;99980.16;;;15.18;91.66
46598;BME280;32318;48.858;8.252;2023-04-28T23:11:37;99978.47;;;15.17;91.67
46598;BME280;32318;48.858;8.252;2023-04-28T23:19:38;99978.25;;;15.12;92.04
46598;BME280;32318;48.858;8.252;2023-04-28T23:27:38;99992.31;;;15.08;91.84
46598;BME280;32318;48.858;8.252;2023-04-28T23:35:40;99996.22;;;15.05;91.88
46598;BME280;32318;48.858;8.252;2023-04-28T23:43:41;99998.28;;;15.03;91.81
46598;BME280;32318;48.858;8.252;2023-04-28T23:51:41;99994.34;;;14.99;92.03
46598;BME280;32318;48.858;8.252;2023-04-28T23:59:42;99998.44;;;14.95;91.84
